createdAt,value
2019-01-19T00:02:09.924Z,-5.00
2019-01-19T00:04:59.576Z,-4.90
2019-01-19T00:07:42.660Z,-4.90
2019-01-19T00:10:43.068Z,-4.90
2019-01-19T00:13:26.473Z,-5.00
2019-01-19T00:16:06.885Z,-5.20
2019-01-19T00:19:01.172Z,-5.10
2019-01-19T00:21:44.696Z,-5.20
2019-01-19T00:24:54.768Z,-5.10
2019-01-19T00:27:35.680Z,-5.10
2019-01-19T00:30:19.628Z,-5.20
2019-01-19T00:33:06.516Z,-5.30
2019-01-19T00:35:51.792Z,-5.40
2019-01-19T00:38:51.588Z,-5.50
2019-01-19T00:41:42.552Z,-5.60
2019-01-19T00:44:25.901Z,-5.70
2019-01-19T00:47:50.713Z,-5.90
2019-01-19T00:50:36.744Z,-5.80
2019-01-19T00:53:35.085Z,-5.60
2019-01-19T00:56:43.256Z,-5.50
2019-01-19T00:59:17.960Z,-5.50
2019-01-19T01:02:44.461Z,-5.30
2019-01-19T01:05:25.536Z,-5.20
2019-01-19T01:08:21.384Z,-5.20
2019-01-19T01:10:59.802Z,-5.20
2019-01-19T01:14:04.289Z,-5.30
2019-01-19T01:16:47.749Z,-5.40
2019-01-19T01:19:32.436Z,-5.50
2019-01-19T01:22:16.059Z,-5.70
2019-01-19T01:24:54.421Z,-5.80
2019-01-19T01:27:47.881Z,-5.90
2019-01-19T01:30:48.089Z,-6.00
2019-01-19T01:33:28.573Z,-6.00
2019-01-19T01:36:34.481Z,-6.20
2019-01-19T01:39:39.727Z,-6.40
2019-01-19T01:42:32.856Z,-6.60
2019-01-19T01:45:25.396Z,-6.70
2019-01-19T01:48:34.817Z,-6.70
2019-01-19T01:51:21.544Z,-6.80
2019-01-19T01:54:02.173Z,-6.80
2019-01-19T01:56:34.225Z,-6.70
2019-01-19T01:59:35.489Z,-6.60
2019-01-19T02:02:15.043Z,-6.70
2019-01-19T02:05:08.185Z,-6.60
2019-01-19T02:07:45.773Z,-6.40
2019-01-19T02:10:35.617Z,-6.20
2019-01-19T02:13:37.370Z,-6.30
2019-01-19T02:17:02.409Z,-6.10
2019-01-19T02:20:02.934Z,-5.80
2019-01-19T02:22:55.573Z,-5.30
2019-01-19T02:25:49.886Z,-5.20
2019-01-19T02:28:36.445Z,-5.10
2019-01-19T02:31:36.225Z,-5.10
2019-01-19T02:34:42.385Z,-5.10
2019-01-19T02:37:19.954Z,-5.20
2019-01-19T02:40:15.390Z,-5.10
2019-01-19T02:43:14.213Z,-5.00
2019-01-19T02:46:21.769Z,-4.80
2019-01-19T02:49:27.838Z,-4.80
2019-01-19T02:52:13.817Z,-4.60
2019-01-19T02:55:09.514Z,-4.60
2019-01-19T02:58:06.559Z,-4.50
2019-01-19T03:00:58.901Z,-4.60
2019-01-19T03:04:03.751Z,-4.50
2019-01-19T03:06:47.417Z,-4.50
2019-01-19T03:09:42.582Z,-4.50
2019-01-19T03:12:56.513Z,-4.50
2019-01-19T03:15:42.964Z,-4.60
2019-01-19T03:18:49.021Z,-4.60
2019-01-19T03:21:40.997Z,-4.60
2019-01-19T03:24:27.717Z,-4.60
2019-01-19T03:27:22.117Z,-4.60
2019-01-19T03:30:17.013Z,-4.60
2019-01-19T03:33:26.903Z,-4.60
2019-01-19T03:36:05.201Z,-4.70
2019-01-19T03:38:55.045Z,-4.70
2019-01-19T03:41:39.617Z,-4.80
2019-01-19T03:44:40.957Z,-4.80
2019-01-19T03:47:31.990Z,-4.80
2019-01-19T03:50:34.032Z,-4.90
2019-01-19T03:53:17.917Z,-5.00
2019-01-19T03:56:07.610Z,-5.00
2019-01-19T03:58:51.993Z,-5.10
2019-01-19T04:01:49.506Z,-5.20
2019-01-19T04:04:44.101Z,-5.20
2019-01-19T04:07:33.349Z,-5.20
2019-01-19T04:10:28.365Z,-5.20
2019-01-19T04:13:25.518Z,-5.20
2019-01-19T04:16:21.153Z,-5.20
2019-01-19T04:18:58.917Z,-5.10
2019-01-19T04:21:45.408Z,-5.10
2019-01-19T04:24:35.831Z,-5.10
2019-01-19T04:27:06.904Z,-5.10
2019-01-19T04:29:37.029Z,-5.10
2019-01-19T04:32:09.225Z,-5.20
2019-01-19T04:34:39.383Z,-5.10
2019-01-19T04:37:14.614Z,-5.20
2019-01-19T04:39:44.858Z,-5.30
2019-01-19T04:42:19.169Z,-5.50
2019-01-19T04:44:50.234Z,-5.50
2019-01-19T04:47:21.357Z,-5.50
2019-01-19T04:49:55.205Z,-5.40
2019-01-19T04:52:31.133Z,-5.30
2019-01-19T04:55:01.385Z,-5.20
2019-01-19T04:57:34.756Z,-5.30
2019-01-19T05:00:17.990Z,-5.30
2019-01-19T05:02:48.081Z,-5.30
2019-01-19T05:05:18.213Z,-5.30
2019-01-19T05:07:57.237Z,-5.50
2019-01-19T05:10:30.338Z,-5.50
2019-01-19T05:13:00.441Z,-5.70
2019-01-19T05:15:30.530Z,-5.80
2019-01-19T05:18:06.885Z,-5.80
2019-01-19T05:20:40.089Z,-5.80
2019-01-19T05:23:11.401Z,-5.80
2019-01-19T05:25:41.491Z,-5.80
2019-01-19T05:28:20.553Z,-5.70
2019-01-19T05:30:50.641Z,-5.60
2019-01-19T05:33:21.666Z,-5.60
2019-01-19T05:35:57.645Z,-5.60
2019-01-19T05:38:30.375Z,-5.70
2019-01-19T05:41:02.267Z,-5.60
2019-01-19T05:43:32.358Z,-5.60
2019-01-19T05:46:08.412Z,-5.60
2019-01-19T05:48:39.493Z,-5.60
2019-01-19T05:51:11.473Z,-5.60
2019-01-19T05:53:41.569Z,-5.50
2019-01-19T05:56:12.615Z,-5.50
2019-01-19T05:58:46.037Z,-5.50
2019-01-19T06:01:24.885Z,-5.60
2019-01-19T06:03:55.169Z,-5.80
2019-01-19T06:06:26.423Z,-5.90
2019-01-19T06:09:07.529Z,-6.10
2019-01-19T06:11:37.614Z,-6.20
2019-01-19T06:14:07.710Z,-6.20
2019-01-19T06:16:37.821Z,-6.40
2019-01-19T06:19:08.279Z,-6.50
2019-01-19T06:21:43.191Z,-6.50
2019-01-19T06:24:19.342Z,-6.40
2019-01-19T06:26:49.429Z,-6.30
2019-01-19T06:29:23.569Z,-6.40
2019-01-19T06:31:53.648Z,-6.50
2019-01-19T06:34:24.811Z,-6.50
2019-01-19T06:36:55.392Z,-6.40
2019-01-19T06:39:27.443Z,-6.20
2019-01-19T06:41:57.545Z,-6.30
2019-01-19T06:44:28.597Z,-6.40
2019-01-19T06:46:58.697Z,-6.30
2019-01-19T06:49:28.773Z,-6.40
2019-01-19T06:52:07.035Z,-6.50
2019-01-19T06:54:40.361Z,-6.50
2019-01-19T06:57:10.445Z,-6.70
2019-01-19T06:59:42.517Z,-6.90
2019-01-19T07:02:14.567Z,-7.10
2019-01-19T07:04:44.674Z,-7.00
2019-01-19T07:07:26.894Z,-6.90
2019-01-19T07:09:57.946Z,-6.80
2019-01-19T07:12:28.022Z,-6.70
2019-01-19T07:14:58.106Z,-6.60
2019-01-19T07:17:28.191Z,-6.60
2019-01-19T07:19:59.225Z,-6.40
2019-01-19T07:22:29.477Z,-6.20
2019-01-19T07:24:59.571Z,-6.00
2019-01-19T07:27:32.965Z,-5.80
2019-01-19T07:30:13.157Z,-5.40
2019-01-19T07:32:43.588Z,-5.10
2019-01-19T07:35:14.903Z,-4.80
2019-01-19T07:37:46.133Z,-4.40
2019-01-19T07:40:20.542Z,-4.10
2019-01-19T07:42:52.393Z,-3.80
2019-01-19T07:45:25.060Z,-3.40
2019-01-19T07:48:01.108Z,-3.10
2019-01-19T07:50:36.946Z,-2.80
2019-01-19T07:53:07.042Z,-2.50
2019-01-19T07:55:40.986Z,-2.30
2019-01-19T07:58:13.017Z,-2.10
2019-01-19T08:00:43.180Z,-1.80
2019-01-19T08:03:13.269Z,-1.90
2019-01-19T08:05:43.365Z,-1.90
2019-01-19T08:08:13.442Z,-1.60
2019-01-19T08:10:43.549Z,-1.20
2019-01-19T08:13:16.001Z,-1.10
2019-01-19T08:15:46.077Z,-1.50
2019-01-19T08:18:17.163Z,-1.90
2019-01-19T08:20:51.240Z,-1.90
2019-01-19T08:23:23.321Z,-1.20
2019-01-19T08:25:53.405Z,-0.40
2019-01-19T08:28:30.517Z,0.20
2019-01-19T08:31:04.615Z,0.40
2019-01-19T08:33:39.669Z,1.10
2019-01-19T08:36:16.161Z,1.90
2019-01-19T08:38:56.266Z,2.20
2019-01-19T08:41:28.321Z,2.40
2019-01-19T08:44:00.505Z,2.80
2019-01-19T08:46:33.575Z,3.10
2019-01-19T08:49:05.714Z,3.40
2019-01-19T08:51:35.801Z,3.40
2019-01-19T08:54:11.817Z,3.00
2019-01-19T08:56:42.878Z,2.50
2019-01-19T08:59:13.914Z,2.10
2019-01-19T09:01:44.973Z,2.10
2019-01-19T09:04:15.903Z,2.20
2019-01-19T09:06:46.925Z,2.20
2019-01-19T09:09:18.009Z,2.40
2019-01-19T09:11:49.113Z,2.40
2019-01-19T09:14:20.385Z,2.30
2019-01-19T09:16:50.479Z,2.10
2019-01-19T09:19:20.566Z,2.30
2019-01-19T09:21:51.669Z,3.00
2019-01-19T09:24:22.005Z,3.30
2019-01-19T09:26:52.239Z,3.60
2019-01-19T09:29:26.559Z,3.60
2019-01-19T09:31:58.593Z,4.70
2019-01-19T09:34:30.574Z,5.40
2019-01-19T09:37:06.973Z,4.70
2019-01-19T09:39:37.086Z,4.20
2019-01-19T09:42:07.297Z,4.30
2019-01-19T09:44:37.361Z,4.10
2019-01-19T09:47:07.458Z,4.80
2019-01-19T09:49:38.555Z,5.00
2019-01-19T09:52:08.693Z,4.60
2019-01-19T09:54:38.858Z,5.80
2019-01-19T09:57:09.891Z,7.30
2019-01-19T09:59:40.046Z,7.70
2019-01-19T10:02:10.385Z,7.30
2019-01-19T10:04:40.469Z,7.00
2019-01-19T10:07:10.602Z,7.10
2019-01-19T10:09:40.673Z,7.20
2019-01-19T10:12:11.202Z,6.90
2019-01-19T10:14:42.241Z,6.60
2019-01-19T10:17:12.420Z,6.40
2019-01-19T10:19:43.682Z,6.70
2019-01-19T10:22:14.821Z,6.90
2019-01-19T10:24:50.581Z,7.50
2019-01-19T10:27:23.346Z,8.00
2019-01-19T10:29:57.126Z,8.20
2019-01-19T10:32:27.206Z,7.60
2019-01-19T10:34:58.441Z,7.60
2019-01-19T10:37:30.449Z,7.60
2019-01-19T10:40:00.590Z,8.10
2019-01-19T10:42:31.553Z,7.50
2019-01-19T10:45:01.627Z,7.50
2019-01-19T10:47:32.746Z,7.70
2019-01-19T10:50:07.178Z,7.80
2019-01-19T10:52:41.177Z,7.80
2019-01-19T10:55:15.706Z,8.10
2019-01-19T10:57:48.270Z,7.90
2019-01-19T11:00:28.193Z,8.10
2019-01-19T11:03:00.571Z,8.10
2019-01-19T11:05:30.760Z,8.10
2019-01-19T11:08:03.987Z,8.20
2019-01-19T11:10:35.983Z,8.30
2019-01-19T11:13:06.086Z,8.70
2019-01-19T11:15:38.660Z,8.10
2019-01-19T11:18:08.809Z,8.60
2019-01-19T11:20:40.841Z,9.00
2019-01-19T11:23:10.913Z,9.50
2019-01-19T11:25:42.085Z,9.50
2019-01-19T11:28:12.394Z,10.00
2019-01-19T11:30:46.690Z,11.30
2019-01-19T11:33:18.190Z,12.10
2019-01-19T11:35:48.295Z,12.20
2019-01-19T11:38:20.265Z,12.70
2019-01-19T11:40:51.582Z,12.50
2019-01-19T11:43:28.505Z,11.80
2019-01-19T11:45:58.650Z,11.80
2019-01-19T11:48:30.274Z,11.90
2019-01-19T11:51:00.362Z,11.20
2019-01-19T11:53:31.527Z,11.00
2019-01-19T11:56:02.686Z,9.60
2019-01-19T11:58:33.747Z,9.60
2019-01-19T12:01:07.252Z,10.10
2019-01-19T12:03:43.470Z,10.60
2019-01-19T12:06:15.094Z,9.40
2019-01-19T12:08:45.236Z,9.20
2019-01-19T12:11:18.937Z,8.50
2019-01-19T12:13:48.998Z,8.30
2019-01-19T12:16:19.058Z,8.00
2019-01-19T12:18:50.126Z,8.40
2019-01-19T12:21:20.312Z,8.90
2019-01-19T12:23:51.379Z,9.00
2019-01-19T12:26:22.486Z,9.20
2019-01-19T12:28:52.886Z,9.40
2019-01-19T12:31:23.038Z,9.50
2019-01-19T12:33:55.090Z,9.10
2019-01-19T12:36:32.161Z,9.90
2019-01-19T12:39:09.249Z,9.40
2019-01-19T12:41:39.388Z,9.70
2019-01-19T12:44:19.745Z,9.90
2019-01-19T12:46:51.286Z,9.00
2019-01-19T12:49:22.342Z,8.70
2019-01-19T12:51:54.346Z,8.20
2019-01-19T12:54:26.469Z,7.90
2019-01-19T12:56:58.498Z,7.90
2019-01-19T12:59:28.714Z,8.00
2019-01-19T13:01:58.709Z,7.30
2019-01-19T13:04:28.907Z,7.10
2019-01-19T13:06:59.194Z,7.50
2019-01-19T13:09:29.438Z,7.30
2019-01-19T13:12:14.956Z,7.40
2019-01-19T13:14:56.434Z,7.60
2019-01-19T13:17:40.418Z,7.60
2019-01-19T13:20:36.686Z,8.30
2019-01-19T13:23:45.162Z,8.20
2019-01-19T13:26:21.870Z,8.00
2019-01-19T13:29:14.394Z,8.40
2019-01-19T13:32:25.669Z,8.50
2019-01-19T13:35:16.739Z,7.70
2019-01-19T13:38:03.981Z,8.20
2019-01-19T13:41:02.247Z,8.70
2019-01-19T13:43:46.594Z,8.50
2019-01-19T13:46:50.292Z,8.50
2019-01-19T13:49:45.938Z,8.20
2019-01-19T13:52:29.053Z,8.30
2019-01-19T13:55:18.852Z,9.20
2019-01-19T13:57:59.074Z,10.00
2019-01-19T14:01:03.695Z,10.00
2019-01-19T14:03:43.134Z,9.60
2019-01-19T14:06:23.322Z,9.90
2019-01-19T14:09:13.196Z,10.30
2019-01-19T14:12:12.094Z,10.50
2019-01-19T14:15:17.462Z,9.60
2019-01-19T14:17:56.511Z,8.30
2019-01-19T14:20:34.366Z,6.20
2019-01-19T14:23:39.594Z,5.80
2019-01-19T14:26:47.523Z,6.10
2019-01-19T14:29:51.815Z,5.80
2019-01-19T14:32:41.418Z,5.60
2019-01-19T14:35:34.050Z,5.70
2019-01-19T14:38:46.846Z,5.70
2019-01-19T14:41:40.863Z,5.80
2019-01-19T14:44:40.275Z,4.70
2019-01-19T14:47:35.938Z,4.10
2019-01-19T14:50:23.046Z,4.10
2019-01-19T14:53:09.691Z,4.40
2019-01-19T14:55:53.374Z,3.80
2019-01-19T14:58:40.042Z,3.90
2019-01-19T15:01:38.406Z,3.60
2019-01-19T15:04:44.809Z,3.10
2019-01-19T15:07:34.050Z,2.30
2019-01-19T15:10:31.374Z,1.70
2019-01-19T15:13:39.462Z,1.90
2019-01-19T15:16:40.510Z,3.10
2019-01-19T15:19:51.634Z,3.00
2019-01-19T15:22:47.070Z,1.70
2019-01-19T15:26:05.774Z,0.60
2019-01-19T15:28:54.206Z,0.00
2019-01-19T15:31:55.886Z,-0.60
2019-01-19T15:34:57.608Z,-0.90
2019-01-19T15:37:43.426Z,-1.20
2019-01-19T15:40:30.982Z,-1.40
2019-01-19T15:43:29.378Z,-1.60
2019-01-19T15:46:35.528Z,-1.70
2019-01-19T15:49:33.382Z,-1.80
2019-01-19T15:52:17.819Z,-1.80
2019-01-19T15:55:13.626Z,-1.90
2019-01-19T15:57:58.072Z,-1.90
2019-01-19T16:00:52.815Z,-2.10
2019-01-19T16:03:39.254Z,-2.10
2019-01-19T16:06:31.978Z,-2.10
2019-01-19T16:09:27.607Z,-2.20
2019-01-19T16:12:04.973Z,-2.20
2019-01-19T16:15:03.682Z,-2.30
2019-01-19T16:17:54.870Z,-2.40
2019-01-19T16:20:50.786Z,-2.50
2019-01-19T16:23:49.458Z,-2.60
2019-01-19T16:26:44.843Z,-2.80
2019-01-19T16:29:38.437Z,-3.00
2019-01-19T16:32:30.779Z,-3.00
2019-01-19T16:35:20.893Z,-3.10
2019-01-19T16:37:58.526Z,-3.10
2019-01-19T16:40:41.883Z,-3.20
2019-01-19T16:43:19.678Z,-3.40
2019-01-19T16:46:22.930Z,-3.40
2019-01-19T16:49:09.586Z,-3.30
2019-01-19T16:52:15.222Z,-3.30
2019-01-19T16:55:04.606Z,-3.30
2019-01-19T16:57:42.352Z,-3.20
2019-01-19T17:01:36.187Z,-3.20
2019-01-19T17:03:52.068Z,-3.50
2019-01-19T17:06:47.218Z,-3.70
2019-01-19T17:09:52.143Z,-3.90
2019-01-19T17:12:44.936Z,-4.00
2019-01-19T17:15:25.606Z,-4.00
2019-01-19T17:18:22.523Z,-4.00
2019-01-19T17:21:19.514Z,-4.10
2019-01-19T17:24:21.318Z,-4.20
2019-01-19T17:27:04.268Z,-4.40
2019-01-19T17:29:52.075Z,-4.50
2019-01-19T17:32:49.892Z,-4.70
2019-01-19T17:35:57.658Z,-4.70
2019-01-19T17:38:50.346Z,-4.70
2019-01-19T17:41:47.302Z,-4.60
2019-01-19T17:44:38.198Z,-4.40
2019-01-19T17:47:18.589Z,-4.20
2019-01-19T17:49:59.184Z,-4.00
2019-01-19T17:52:33.891Z,-3.90
2019-01-19T17:55:26.515Z,-3.90
2019-01-19T17:58:18.983Z,-3.80
2019-01-19T18:01:08.630Z,-3.70
2019-01-19T18:03:46.038Z,-3.80
2019-01-19T18:06:35.907Z,-3.80
2019-01-19T18:09:28.761Z,-3.90
2019-01-19T18:12:09.578Z,-3.90
2019-01-19T18:15:17.376Z,-3.90
2019-01-19T18:17:54.610Z,-4.00
2019-01-19T18:20:47.188Z,-4.10
2019-01-19T18:23:38.133Z,-4.10
2019-01-19T18:26:32.306Z,-4.10
2019-01-19T18:29:13.034Z,-4.10
2019-01-19T18:32:01.019Z,-4.10
2019-01-19T18:34:38.131Z,-4.10
2019-01-19T18:37:36.107Z,-4.10
2019-01-19T18:40:34.415Z,-4.10
2019-01-19T18:43:42.119Z,-4.00
2019-01-19T18:46:19.600Z,-3.90
2019-01-19T18:49:06.160Z,-3.90
2019-01-19T18:52:00.645Z,-3.90
2019-01-19T18:54:41.300Z,-3.90
2019-01-19T18:57:33.883Z,-4.00
2019-01-19T19:00:08.667Z,-4.00
2019-01-19T19:03:15.719Z,-4.00
2019-01-19T19:06:04.967Z,-4.10
2019-01-19T19:09:00.495Z,-4.10
2019-01-19T19:11:46.711Z,-4.10
2019-01-19T19:14:34.182Z,-4.10
2019-01-19T19:17:34.285Z,-4.10
2019-01-19T19:20:17.915Z,-4.20
2019-01-19T19:23:13.287Z,-4.20
2019-01-19T19:26:19.884Z,-4.20
2019-01-19T19:28:57.802Z,-4.30
2019-01-19T19:31:50.683Z,-4.30
2019-01-19T19:34:40.287Z,-4.30
2019-01-19T19:37:21.584Z,-4.30
2019-01-19T19:39:58.295Z,-4.30
2019-01-19T19:42:55.359Z,-4.30
2019-01-19T19:45:42.727Z,-4.30
2019-01-19T19:48:31.951Z,-4.30
2019-01-19T19:51:27.264Z,-4.40
2019-01-19T19:53:57.435Z,-4.40
2019-01-19T19:56:26.804Z,-4.50
2019-01-19T19:58:56.903Z,-4.50
2019-01-19T20:01:26.999Z,-4.50
2019-01-19T20:03:57.106Z,-4.50
2019-01-19T20:06:27.211Z,-4.60
2019-01-19T20:08:58.244Z,-4.70
2019-01-19T20:11:28.327Z,-4.70
2019-01-19T20:14:00.179Z,-4.70
2019-01-19T20:16:30.275Z,-4.70
2019-01-19T20:19:00.959Z,-4.80
2019-01-19T20:21:31.051Z,-4.80
2019-01-19T20:24:01.135Z,-4.90
2019-01-19T20:26:31.255Z,-4.90
2019-01-19T20:29:01.359Z,-5.00
2019-01-19T20:31:31.467Z,-5.00
2019-01-19T20:34:01.631Z,-5.00
2019-01-19T20:36:31.719Z,-5.00
2019-01-19T20:39:01.843Z,-5.10
2019-01-19T20:41:31.920Z,-5.10
2019-01-19T20:44:02.975Z,-5.10
2019-01-19T20:46:35.959Z,-5.20
2019-01-19T20:49:06.039Z,-5.30
2019-01-19T20:51:37.116Z,-5.30
2019-01-19T20:54:07.203Z,-5.20
2019-01-19T20:56:38.293Z,-5.20
2019-01-19T20:59:08.408Z,-5.30
2019-01-19T21:01:38.479Z,-5.40
2019-01-19T21:04:15.606Z,-5.40
2019-01-19T21:06:41.239Z,-5.40
2019-01-19T21:09:11.476Z,-5.40
2019-01-19T21:11:41.636Z,-5.30
2019-01-19T21:14:11.725Z,-5.30
2019-01-19T21:16:42.821Z,-5.30
2019-01-19T21:19:12.935Z,-5.30
2019-01-19T21:21:44.947Z,-5.20
2019-01-19T21:24:16.063Z,-5.20
2019-01-19T21:26:46.167Z,-5.20
2019-01-19T21:29:16.287Z,-5.30
2019-01-19T21:31:46.405Z,-5.20
2019-01-19T21:34:16.475Z,-5.20
2019-01-19T21:36:46.563Z,-5.20
2019-01-19T21:39:16.659Z,-5.20
2019-01-19T21:41:46.765Z,-5.20
2019-01-19T21:44:16.835Z,-5.20
2019-01-19T21:46:47.819Z,-5.20
2019-01-19T21:49:18.809Z,-5.30
2019-01-19T21:51:49.883Z,-5.30
2019-01-19T21:54:19.967Z,-5.30
2019-01-19T21:56:50.663Z,-5.30
2019-01-19T21:59:20.771Z,-5.30
2019-01-19T22:01:50.855Z,-5.40
2019-01-19T22:04:20.947Z,-5.40
2019-01-19T22:06:51.045Z,-5.40
2019-01-19T22:09:21.171Z,-5.40
2019-01-19T22:11:51.259Z,-5.50
2019-01-19T22:14:21.359Z,-5.50
2019-01-19T22:16:51.463Z,-5.50
2019-01-19T22:19:21.543Z,-5.60
2019-01-19T22:21:51.643Z,-5.60
2019-01-19T22:24:22.663Z,-5.60
2019-01-19T22:26:53.539Z,-5.70
2019-01-19T22:29:24.625Z,-5.70
2019-01-19T22:31:54.717Z,-5.70
2019-01-19T22:34:24.812Z,-5.80
2019-01-19T22:36:55.873Z,-5.90
2019-01-19T22:39:25.951Z,-5.90
2019-01-19T22:41:56.057Z,-5.90
2019-01-19T22:44:26.203Z,-6.00
2019-01-19T22:46:57.221Z,-6.10
2019-01-19T22:49:27.325Z,-6.10
2019-01-19T22:51:57.427Z,-6.20
2019-01-19T22:54:27.519Z,-6.20
2019-01-19T22:56:59.645Z,-6.30
2019-01-19T22:59:30.681Z,-6.40
2019-01-19T23:02:01.844Z,-6.60
2019-01-19T23:04:31.899Z,-6.60
2019-01-19T23:07:02.056Z,-6.50
2019-01-19T23:09:32.189Z,-6.60
2019-01-19T23:12:02.312Z,-6.60
2019-01-19T23:14:32.987Z,-6.60
2019-01-19T23:17:04.355Z,-6.60
2019-01-19T23:19:34.475Z,-6.60
2019-01-19T23:22:04.623Z,-6.60
2019-01-19T23:24:34.791Z,-6.50
2019-01-19T23:27:05.532Z,-6.50
2019-01-19T23:29:36.611Z,-6.50
2019-01-19T23:32:07.699Z,-6.60
2019-01-19T23:34:39.227Z,-6.70
2019-01-19T23:37:09.324Z,-6.80
2019-01-19T23:39:39.427Z,-6.80
2019-01-19T23:42:09.519Z,-6.90
2019-01-19T23:44:41.651Z,-6.90
2019-01-19T23:47:11.775Z,-6.70
2019-01-19T23:49:42.015Z,-6.60
2019-01-19T23:52:12.135Z,-6.70
2019-01-19T23:54:43.211Z,-6.80
2019-01-19T23:57:14.263Z,-6.80
2019-01-19T23:59:44.539Z,-6.90
